Time;durP1;ratioP1;P1;durP2;ratioP2;P2;SDS_P1;SDS_P2;PMS_P1;PMS_P2;Temp;Humidity;BMP_temperature;BMP_pressure;BME280_temperature;BME280_humidity;BME280_pressure;Samples;Min_cycle;Max_cycle;Signal;HPM_P1;HPM_P2
2021/03/25 00:00:06;;;;;;;3.15;2.85;;;;;;;;;;5127060;27;20273;-67
2021/03/25 00:02:32;;;;;;;3.20;2.97;;;;;;;;;;5127203;27;20038;-67
2021/03/25 00:04:58;;;;;;;2.55;2.15;;;;;;;;;;5127755;27;20027;-67
2021/03/25 00:07:25;;;;;;;3.50;2.70;;;;;;;;;;5129005;27;20499;-67
2021/03/25 00:09:51;;;;;;;2.97;1.77;;;;;;;;;;5126632;27;20015;-67
2021/03/25 00:12:17;;;;;;;2.58;2.30;;;;;;;;;;5126874;27;20045;-67
2021/03/25 00:14:43;;;;;;;2.45;2.25;;;;;;;;;;5127917;28;20020;-67
2021/03/25 00:17:09;;;;;;;4.20;2.83;;;;;;;;;;5128217;28;20030;-67
2021/03/25 00:19:35;;;;;;;3.45;3.15;;;;;;;;;;5128084;28;20027;-67
2021/03/25 00:22:01;;;;;;;3.53;3.03;;;;;;;;;;5126243;28;20114;-67
2021/03/25 00:24:29;;;;;;;2.95;2.33;;;;;;;;;;5127874;28;20466;-67
2021/03/25 00:26:55;;;;;;;3.42;2.92;;;;;;;;;;5128679;28;20051;-67
2021/03/25 00:29:21;;;;;;;3.67;3.38;;;;;;;;;;5127286;28;20034;-67
2021/03/25 00:31:47;;;;;;;4.70;3.40;;;;;;;;;;5126431;28;20092;-67
2021/03/25 00:34:13;;;;;;;3.28;2.63;;;;;;;;;;5126651;28;20143;-67
2021/03/25 00:36:39;;;;;;;2.72;2.53;;;;;;;;;;5128554;28;20031;-67
2021/03/25 00:39:07;;;;;;;2.45;2.30;;;;;;;;;;5127590;28;20106;-67
2021/03/25 00:41:35;;;;;;;3.05;2.63;;;;;;;;;;5126869;28;20027;-67
2021/03/25 00:44:01;;;;;;;3.00;2.72;;;;;;;;;;5112686;28;20502;-67
2021/03/25 00:46:27;;;;;;;3.67;2.30;;;;;;;;;;5107462;28;20023;-67
2021/03/25 00:48:53;;;;;;;2.63;2.15;;;;;;;;;;5107420;28;20035;-68
2021/03/25 00:51:19;;;;;;;2.92;2.72;;;;;;;;;;5105299;28;20044;-67
2021/03/25 00:53:45;;;;;;;2.60;2.40;;;;;;;;;;5106541;28;20076;-67
2021/03/25 00:56:11;;;;;;;3.40;2.50;;;;;;;;;;5105698;28;20031;-67
2021/03/25 00:58:37;;;;;;;2.67;2.47;;;;;;;;;;5108283;28;20478;-67
2021/03/25 01:01:07;;;;;;;3.85;2.78;;;;;;;;;;5124963;28;20027;-67
2021/03/25 01:03:33;;;;;;;2.47;2.28;;;;;;;;;;5127779;28;20019;-67
2021/03/25 01:05:59;;;;;;;2.45;2.13;;;;;;;;;;5127001;28;20282;-67
2021/03/25 01:08:25;;;;;;;3.33;3.03;;;;;;;;;;5127904;28;20107;-67
2021/03/25 01:10:53;;;;;;;3.83;3.10;;;;;;;;;;5127126;28;20706;-67
2021/03/25 01:13:38;;;;;;;3.50;3.00;;;;;;;;;;5126183;28;20670;-67
2021/03/25 01:16:05;;;;;;;2.38;2.22;;;;;;;;;;5111850;28;20554;-67
2021/03/25 01:18:31;;;;;;;3.17;2.85;;;;;;;;;;5106987;28;20224;-67
2021/03/25 01:20:58;;;;;;;6.90;3.47;;;;;;;;;;5106321;28;20031;-67
2021/03/25 01:23:24;;;;;;;5.43;2.72;;;;;;;;;;5110378;28;20023;-67
2021/03/25 01:25:50;;;;;;;2.58;2.38;;;;;;;;;;5110968;28;20043;-67
2021/03/25 01:28:17;;;;;;;4.40;2.45;;;;;;;;;;5109510;28;20371;-67
2021/03/25 01:30:43;;;;;;;3.67;2.97;;;;;;;;;;5110332;28;20486;-67
2021/03/25 01:33:10;;;;;;;2.38;2.17;;;;;;;;;;5110125;28;20033;-67
2021/03/25 01:35:39;;;;;;;2.72;2.53;;;;;;;;;;5110508;28;20032;-67
2021/03/25 01:38:05;;;;;;;3.05;2.85;;;;;;;;;;5110036;28;20023;-67
2021/03/25 01:40:52;;;;;;;3.00;2.45;;;;;;;;;;5110409;28;20055;-67
2021/03/25 01:43:39;;;;;;;3.60;2.92;;;;;;;;;;5109658;28;20024;-67
2021/03/25 01:46:21;;;;;;;2.53;2.28;;;;;;;;;;5110223;28;20027;-67
2021/03/25 01:48:48;;;;;;;3.75;2.55;;;;;;;;;;5123791;27;20031;-67
2021/03/25 01:51:42;;;;;;;3.72;2.90;;;;;;;;;;5129840;27;20039;-67
2021/03/25 01:54:14;;;;;;;3.22;2.95;;;;;;;;;;5130309;27;20031;-67
2021/03/25 01:56:46;;;;;;;2.30;2.10;;;;;;;;;;5130748;27;20027;-67
2021/03/25 01:59:27;;;;;;;4.25;2.53;;;;;;;;;;5129165;27;20047;-67
2021/03/25 02:01:55;;;;;;;1.80;1.70;;;;;;;;;;5129795;27;20050;-67
2021/03/25 02:04:25;;;;;;;3.22;2.85;;;;;;;;;;5129593;27;20019;-67
2021/03/25 02:07:00;;;;;;;2.53;2.33;;;;;;;;;;5130906;27;20077;-67
2021/03/25 02:09:26;;;;;;;3.10;2.38;;;;;;;;;;5130374;27;20028;-67
2021/03/25 02:12:10;;;;;;;2.30;2.08;;;;;;;;;;5128766;27;20126;-67
2021/03/25 02:15:00;;;;;;;2.90;2.70;;;;;;;;;;5130480;27;20076;-67
2021/03/25 02:17:27;;;;;;;2.47;2.28;;;;;;;;;;5082524;27;20335;-67
2021/03/25 02:19:59;;;;;;;2.70;2.47;;;;;;;;;;5129680;27;20029;-67
2021/03/25 02:22:35;;;;;;;3.10;2.58;;;;;;;;;;5128769;27;20435;-67
2021/03/25 02:25:08;;;;;;;2.75;2.55;;;;;;;;;;5129347;27;20023;-67
2021/03/25 02:27:34;;;;;;;;;;;;;;;;;;5130412;27;20355;-67
2021/03/25 02:30:03;;;;;;;1.85;1.75;;;;;;;;;;5129331;27;19915;-67
2021/03/25 02:32:32;;;;;;;2.25;2.05;;;;;;;;;;5127283;27;20308;-67
2021/03/25 02:34:59;;;;;;;2.28;2.10;;;;;;;;;;5128866;27;20026;-67
2021/03/25 02:37:35;;;;;;;2.08;1.92;;;;;;;;;;5130606;27;20027;-67
2021/03/25 02:40:13;;;;;;;3.10;2.85;;;;;;;;;;5128972;27;20027;-67
2021/03/25 02:42:47;;;;;;;2.08;1.90;;;;;;;;;;5125158;27;20028;-67
2021/03/25 02:45:16;;;;;;;2.28;2.08;;;;;;;;;;5108715;28;20032;-67
2021/03/25 02:47:44;;;;;;;3.65;2.40;;;;;;;;;;5108479;28;20507;-67
2021/03/25 02:50:14;;;;;;;2.53;2.33;;;;;;;;;;5108452;28;20024;-67
2021/03/25 02:52:42;;;;;;;2.47;2.28;;;;;;;;;;5107918;28;20062;-67
2021/03/25 02:55:10;;;;;;;2.22;2.00;;;;;;;;;;5108231;28;20516;-67
2021/03/25 02:57:56;;;;;;;3.90;2.33;;;;;;;;;;5107494;28;20037;-68
2021/03/25 03:00:25;;;;;;;2.28;2.05;;;;;;;;;;5110728;27;20039;-67
2021/03/25 03:02:54;;;;;;;2.85;2.40;;;;;;;;;;5128857;27;20118;-67
2021/03/25 03:05:25;;;;;;;2.53;2.33;;;;;;;;;;5127704;27;20034;-67
2021/03/25 03:07:54;;;;;;;2.97;2.40;;;;;;;;;;5129778;27;20023;-67
2021/03/25 03:10:22;;;;;;;2.10;1.92;;;;;;;;;;5127385;27;20257;-67
2021/03/25 03:12:49;;;;;;;2.17;1.90;;;;;;;;;;5128853;27;20030;-67
2021/03/25 03:15:18;;;;;;;2.25;2.15;;;;;;;;;;5119492;27;20027;-67
2021/03/25 03:17:50;;;;;;;2.03;1.92;;;;;;;;;;5108902;28;20034;-67
2021/03/25 03:20:16;;;;;;;2.08;1.88;;;;;;;;;;5106279;28;20398;-67
2021/03/25 03:22:42;;;;;;;3.10;2.80;;;;;;;;;;5107800;28;20028;-67
2021/03/25 03:25:10;;;;;;;2.78;2.20;;;;;;;;;;5106536;28;20429;-67
2021/03/25 03:27:40;;;;;;;3.10;2.60;;;;;;;;;;5107753;28;20035;-67
2021/03/25 03:30:14;;;;;;;1.90;1.80;;;;;;;;;;5106887;28;20023;-67
2021/03/25 03:33:00;;;;;;;2.47;2.28;;;;;;;;;;5107754;28;20436;-67
2021/03/25 03:35:38;;;;;;;2.63;2.15;;;;;;;;;;5106735;28;20028;-67
2021/03/25 03:38:06;;;;;;;2.20;2.00;;;;;;;;;;5108046;28;20390;-67
2021/03/25 03:40:37;;;;;;;3.28;2.58;;;;;;;;;;5106145;28;20110;-67
2021/03/25 03:43:05;;;;;;;2.47;2.28;;;;;;;;;;5107228;28;20035;-67
2021/03/25 03:45:32;;;;;;;2.50;2.20;;;;;;;;;;5106064;28;20031;-67
2021/03/25 03:48:01;;;;;;;2.78;2.58;;;;;;;;;;5125450;27;20019;-67
2021/03/25 03:50:30;;;;;;;2.60;2.25;;;;;;;;;;5126728;27;20042;-67
2021/03/25 03:52:56;;;;;;;2.90;2.30;;;;;;;;;;5127900;27;20389;-67
2021/03/25 03:55:22;;;;;;;2.80;2.55;;;;;;;;;;5127777;27;20501;-67
2021/03/25 03:57:48;;;;;;;3.13;2.05;;;;;;;;;;5125478;27;20485;-67
2021/03/25 04:00:33;;;;;;;2.40;1.90;;;;;;;;;;5126612;27;20367;-67
2021/03/25 04:03:09;;;;;;;2.75;2.53;;;;;;;;;;5127262;27;20037;-67
2021/03/25 04:05:41;;;;;;;2.40;2.30;;;;;;;;;;5127347;27;20724;-67
2021/03/25 04:08:19;;;;;;;2.17;1.92;;;;;;;;;;5128110;27;20489;-67
2021/03/25 04:11:05;;;;;;;2.30;2.13;;;;;;;;;;5127008;27;20303;-67
2021/03/25 04:13:34;;;;;;;2.53;1.90;;;;;;;;;;5127897;27;20027;-67
2021/03/25 04:16:00;;;;;;;2.03;1.92;;;;;;;;;;5127098;27;20023;-67
2021/03/25 04:18:29;;;;;;;2.58;1.92;;;;;;;;;;5128308;28;20470;-67
2021/03/25 04:21:02;;;;;;;1.58;1.48;;;;;;;;;;5126642;28;20019;-67
2021/03/25 04:23:29;;;;;;;3.97;2.35;;;;;;;;;;5127984;28;20398;-67
2021/03/25 04:25:58;;;;;;;3.15;2.13;;;;;;;;;;5128148;28;20027;-67
2021/03/25 04:28:31;;;;;;;4.45;3.10;;;;;;;;;;5126385;28;20023;-67
2021/03/25 04:30:58;;;;;;;3.77;2.20;;;;;;;;;;5126815;28;20054;-66
2021/03/25 04:33:25;;;;;;;2.25;2.05;;;;;;;;;;5127525;28;20027;-67
2021/03/25 04:35:52;;;;;;;1.60;1.50;;;;;;;;;;5128106;28;20402;-67
2021/03/25 04:38:23;;;;;;;2.72;2.53;;;;;;;;;;5126812;28;20083;-67
2021/03/25 04:40:50;;;;;;;1.88;1.50;;;;;;;;;;5127471;28;20536;-67
2021/03/25 04:43:20;;;;;;;2.28;2.08;;;;;;;;;;5119046;28;20027;-67
2021/03/25 04:46:06;;;;;;;1.77;1.67;;;;;;;;;;5128502;28;20031;-67
2021/03/25 04:48:37;;;;;;;2.00;1.80;;;;;;;;;;5127886;28;20054;-67
2021/03/25 04:51:07;;;;;;;2.45;1.95;;;;;;;;;;5125913;28;20023;-67
2021/03/25 04:53:35;;;;;;;2.40;2.20;;;;;;;;;;5127607;28;20027;-67
2021/03/25 04:56:02;;;;;;;2.22;2.03;;;;;;;;;;5129306;27;20055;-67
2021/03/25 04:58:33;;;;;;;2.42;1.92;;;;;;;;;;5130080;27;20042;-67
2021/03/25 05:01:07;;;;;;;1.55;1.45;;;;;;;;;;5129888;27;20039;-67
2021/03/25 05:03:33;;;;;;;;;;;;;;;;;;5131519;27;20019;-67
2021/03/25 05:05:59;;;;;;;3.25;2.05;;;;;;;;;;5131245;27;20373;-67
2021/03/25 05:08:28;;;;;;;3.38;3.03;;;;;;;;;;5130611;27;20015;-67
2021/03/25 05:10:54;;;;;;;2.00;1.90;;;;;;;;;;5131037;27;20031;-66
2021/03/25 05:13:20;;;;;;;1.98;1.83;;;;;;;;;;5130291;27;20428;-67
2021/03/25 05:15:46;;;;;;;4.35;3.75;;;;;;;;;;5118894;27;20107;-67
2021/03/25 05:18:24;;;;;;;1.95;1.85;;;;;;;;;;5110243;28;20019;-67
2021/03/25 05:20:58;;;;;;;3.33;1.98;;;;;;;;;;5109025;28;20110;-67
2021/03/25 05:23:38;;;;;;;2.92;2.65;;;;;;;;;;5110716;28;20095;-67
2021/03/25 05:26:10;;;;;;;2.33;1.90;;;;;;;;;;5110230;28;20038;-67
2021/03/25 05:28:39;;;;;;;1.95;1.75;;;;;;;;;;5109585;28;20393;-67
2021/03/25 05:31:08;;;;;;;3.00;2.10;;;;;;;;;;5109292;28;20231;-67
2021/03/25 05:33:35;;;;;;;2.15;1.95;;;;;;;;;;5109428;28;20456;-67
2021/03/25 05:36:06;;;;;;;1.95;1.67;;;;;;;;;;5110409;28;20020;-67
2021/03/25 05:38:32;;;;;;;3.22;2.83;;;;;;;;;;5109993;28;20509;-67
2021/03/25 05:41:18;;;;;;;3.50;2.45;;;;;;;;;;5108419;28;20368;-67
2021/03/25 05:43:44;;;;;;;2.10;1.75;;;;;;;;;;5058663;28;20032;-67
2021/03/25 05:46:33;;;;;;;2.42;2.08;;;;;;;;;;5111651;27;20024;-67
2021/03/25 05:49:21;;;;;;;6.78;3.35;;;;;;;;;;5130612;27;20107;-67
2021/03/25 05:52:06;;;;;;;1.63;1.52;;;;;;;;;;5130269;27;20401;-67
2021/03/25 05:54:33;;;;;;;4.18;2.42;;;;;;;;;;5130892;27;20026;-67
2021/03/25 05:57:05;;;;;;;2.85;2.28;;;;;;;;;;5128779;27;20457;-67
2021/03/25 05:59:35;;;;;;;2.72;2.53;;;;;;;;;;5128970;27;20043;-67
2021/03/25 06:02:02;;;;;;;2.00;1.88;;;;;;;;;;5128503;27;20019;-67
2021/03/25 06:04:32;;;;;;;2.00;1.90;;;;;;;;;;5128768;27;20386;-67
2021/03/25 06:07:07;;;;;;;3.10;1.98;;;;;;;;;;5129960;27;20030;-66
2021/03/25 06:09:36;;;;;;;1.83;1.30;;;;;;;;;;5129760;27;20087;-67
2021/03/25 06:12:07;;;;;;;2.28;2.03;;;;;;;;;;5128193;27;20035;-67
2021/03/25 06:14:51;;;;;;;2.10;1.92;;;;;;;;;;5130582;27;20026;-67
2021/03/25 06:17:31;;;;;;;2.00;1.90;;;;;;;;;;5129035;27;20337;-67
2021/03/25 06:20:01;;;;;;;1.80;1.70;;;;;;;;;;5129324;27;20480;-67
2021/03/25 06:22:27;;;;;;;2.22;1.90;;;;;;;;;;5129772;27;20039;-67
2021/03/25 06:25:08;;;;;;;2.30;2.10;;;;;;;;;;5128851;27;20065;-67
2021/03/25 06:27:42;;;;;;;2.33;2.00;;;;;;;;;;5129748;27;20390;-67
2021/03/25 06:30:10;;;;;;;1.80;1.67;;;;;;;;;;5129198;27;20540;-67
2021/03/25 06:32:55;;;;;;;2.20;2.00;;;;;;;;;;5128438;27;20015;-67
2021/03/25 06:35:42;;;;;;;2.00;1.77;;;;;;;;;;5129636;27;20077;-67
2021/03/25 06:38:31;;;;;;;2.05;1.92;;;;;;;;;;5112084;27;20486;-67
2021/03/25 06:41:10;;;;;;;2.97;2.78;;;;;;;;;;5129164;27;20023;-67
2021/03/25 06:43:39;;;;;;;2.22;2.03;;;;;;;;;;5118785;27;20063;-67
2021/03/25 06:46:08;;;;;;;3.80;2.72;;;;;;;;;;5108627;28;20030;-67
2021/03/25 06:48:37;;;;;;;4.55;3.28;;;;;;;;;;5105049;27;20083;-67
2021/03/25 06:51:15;;;;;;;4.03;3.50;;;;;;;;;;5098440;28;20035;-67
2021/03/25 06:53:42;;;;;;;2.88;2.25;;;;;;;;;;5097116;28;20536;-67
2021/03/25 06:56:09;;;;;;;2.85;2.65;;;;;;;;;;5095218;27;20031;-67
2021/03/25 06:58:45;;;;;;;3.67;2.38;;;;;;;;;;5090641;28;20034;-67
2021/03/25 07:01:27;;;;;;;3.65;2.40;;;;;;;;;;5115043;27;20035;-69
2021/03/25 07:03:55;;;;;;;4.55;3.05;;;;;;;;;;5105196;27;20030;-67
2021/03/25 07:06:22;;;;;;;3.20;2.90;;;;;;;;;;5114542;27;20147;-67
2021/03/25 07:08:49;;;;;;;3.03;2.40;;;;;;;;;;5119529;27;20079;-67
2021/03/25 07:11:19;;;;;;;3.15;2.65;;;;;;;;;;5125905;27;20039;-67
2021/03/25 07:13:49;;;;;;;4.60;3.30;;;;;;;;;;5126977;27;20549;-67
2021/03/25 07:16:15;;;;;;;5.22;2.85;;;;;;;;;;5118242;27;20762;-67
2021/03/25 07:18:58;;;;;;;5.25;2.65;;;;;;;;;;5117687;27;20031;-67
2021/03/25 07:21:24;;;;;;;4.90;3.57;;;;;;;;;;5125766;27;20023;-67
2021/03/25 07:23:51;;;;;;;3.03;2.78;;;;;;;;;;5126621;27;20031;-67
2021/03/25 07:26:30;;;;;;;2.53;2.20;;;;;;;;;;5124996;27;20105;-67
2021/03/25 07:29:00;;;;;;;2.95;2.65;;;;;;;;;;5120855;27;20031;-66
2021/03/25 07:31:31;;;;;;;3.85;3.55;;;;;;;;;;5122297;27;20035;-67
2021/03/25 07:33:57;;;;;;;2.45;2.15;;;;;;;;;;5116480;27;20019;-67
2021/03/25 07:36:23;;;;;;;3.20;2.92;;;;;;;;;;5105882;27;20031;-67
2021/03/25 07:38:58;;;;;;;3.65;3.00;;;;;;;;;;5113992;27;20031;-67
2021/03/25 07:41:26;;;;;;;3.65;2.85;;;;;;;;;;5110966;27;20058;-68
2021/03/25 07:43:56;;;;;;;3.53;3.22;;;;;;;;;;5105268;27;20152;-68
2021/03/25 07:46:29;;;;;;;4.32;3.92;;;;;;;;;;5108517;27;20051;-68
2021/03/25 07:49:00;;;;;;;6.67;4.10;;;;;;;;;;5110450;27;20744;-68
2021/03/25 07:51:27;;;;;;;4.30;3.78;;;;;;;;;;5109798;27;20549;-68
2021/03/25 07:54:08;;;;;;;5.00;4.50;;;;;;;;;;5112229;27;20034;-68
2021/03/25 07:56:35;;;;;;;5.28;3.92;;;;;;;;;;5110839;27;20538;-68
2021/03/25 07:59:01;;;;;;;6.68;4.15;;;;;;;;;;5111784;27;20168;-68
2021/03/25 08:01:27;;;;;;;4.18;3.45;;;;;;;;;;5110233;27;20023;-67
2021/03/25 08:03:58;;;;;;;4.97;4.22;;;;;;;;;;5112774;27;20023;-67
2021/03/25 08:06:34;;;;;;;3.97;3.58;;;;;;;;;;5104590;27;20455;-68
2021/03/25 08:09:10;;;;;;;4.20;3.88;;;;;;;;;;5106639;27;20323;-68
2021/03/25 08:12:09;;;;;;;8.77;5.15;;;;;;;;;;5109493;27;20074;-68
2021/03/25 08:14:36;;;;;;;5.15;4.60;;;;;;;;;;5082895;27;20031;-68
2021/03/25 08:17:05;;;;;;;5.45;3.83;;;;;;;;;;5108948;27;20029;-67
2021/03/25 08:19:39;;;;;;;3.42;3.20;;;;;;;;;;5110193;27;20576;-68
2021/03/25 08:22:27;;;;;;;11.52;5.18;;;;;;;;;;5106118;28;20689;-68
2021/03/25 08:25:04;;;;;;;6.93;4.35;;;;;;;;;;5112676;28;20434;-67
2021/03/25 08:27:30;;;;;;;7.07;4.07;;;;;;;;;;5109422;27;20401;-67
2021/03/25 08:30:03;;;;;;;4.57;4.15;;;;;;;;;;5111212;27;20023;-67
2021/03/25 08:32:49;;;;;;;10.63;4.25;;;;;;;;;;5104330;27;20031;-68
2021/03/25 08:35:19;;;;;;;4.47;3.72;;;;;;;;;;5113686;27;20379;-68
2021/03/25 08:37:45;;;;;;;4.60;4.20;;;;;;;;;;5114604;27;20314;-67
2021/03/25 08:40:14;;;;;;;4.40;3.65;;;;;;;;;;5111735;27;20822;-67
2021/03/25 08:42:41;;;;;;;4.90;3.95;;;;;;;;;;5113230;27;20062;-67
2021/03/25 08:45:19;;;;;;;5.13;3.70;;;;;;;;;;5113441;27;20034;-67
2021/03/25 08:47:57;;;;;;;5.78;3.83;;;;;;;;;;5115355;27;20043;-68
2021/03/25 08:50:26;;;;;;;5.00;4.20;;;;;;;;;;5113773;27;20035;-67
2021/03/25 08:52:54;;;;;;;9.45;4.18;;;;;;;;;;5113742;27;20478;-67
2021/03/25 08:55:34;;;;;;;6.22;3.28;;;;;;;;;;5110942;27;20043;-68
2021/03/25 08:58:11;;;;;;;4.75;4.35;;;;;;;;;;5109701;27;20451;-72
2021/03/25 09:00:39;;;;;;;4.60;3.60;;;;;;;;;;5110541;27;20082;-68
2021/03/25 09:03:17;;;;;;;9.63;4.88;;;;;;;;;;5112937;27;20038;-67
2021/03/25 09:06:02;;;;;;;4.25;3.38;;;;;;;;;;5110392;27;20894;-68
2021/03/25 09:08:30;;;;;;;4.50;4.10;;;;;;;;;;5115669;27;20032;-68
2021/03/25 09:10:59;;;;;;;5.00;4.20;;;;;;;;;;5115506;27;20066;-67
2021/03/25 09:13:30;;;;;;;4.82;4.35;;;;;;;;;;5114504;27;20022;-69
2021/03/25 09:15:58;;;;;;;5.15;4.57;;;;;;;;;;5111567;27;20428;-68
2021/03/25 09:18:25;;;;;;;4.13;3.72;;;;;;;;;;5116213;27;20034;-68
2021/03/25 09:20:54;;;;;;;7.30;4.13;;;;;;;;;;5114358;27;20019;-67
2021/03/25 09:23:32;;;;;;;3.85;3.55;;;;;;;;;;5113475;27;20119;-68
2021/03/25 09:26:13;;;;;;;4.28;3.85;;;;;;;;;;5107952;27;20045;-67
2021/03/25 09:29:07;;;;;;;4.80;4.10;;;;;;;;;;5113436;27;20810;-71
2021/03/25 09:31:35;;;;;;;5.38;4.82;;;;;;;;;;5113402;27;20054;-70
2021/03/25 09:34:01;;;;;;;4.38;3.85;;;;;;;;;;5096708;27;20035;-68
2021/03/25 09:36:37;;;;;;;5.25;4.35;;;;;;;;;;5108771;27;20084;-68
2021/03/25 09:39:03;;;;;;;4.95;4.10;;;;;;;;;;5113584;27;20490;-68
2021/03/25 09:41:30;;;;;;;3.50;3.20;;;;;;;;;;5114628;27;20477;-68
2021/03/25 09:44:18;;;;;;;6.70;3.80;;;;;;;;;;5114043;27;20023;-67
2021/03/25 09:47:16;;;;;;;4.35;3.60;;;;;;;;;;5113459;27;20027;-68
2021/03/25 09:49:42;;;;;;;5.55;3.88;;;;;;;;;;5071176;27;20075;-68
2021/03/25 09:52:09;;;;;;;5.68;4.75;;;;;;;;;;5114219;27;20054;-67
2021/03/25 09:54:36;;;;;;;4.38;3.70;;;;;;;;;;5114739;27;20051;-67
2021/03/25 09:57:21;;;;;;;8.38;5.53;;;;;;;;;;5112315;27;20125;-67
2021/03/25 09:59:53;;;;;;;5.95;4.35;;;;;;;;;;5102933;27;20528;-68
2021/03/25 10:02:41;;;;;;;6.30;5.63;;;;;;;;;;5084796;28;20460;-68
2021/03/25 10:05:31;;;;;;;5.68;5.18;;;;;;;;;;5081323;27;20032;-67
2021/03/25 10:07:59;;;;;;;5.15;4.07;;;;;;;;;;5078244;28;20027;-67
2021/03/25 10:10:35;;;;;;;5.68;4.57;;;;;;;;;;5079110;28;20113;-67
2021/03/25 10:13:01;;;;;;;4.38;3.88;;;;;;;;;;5084519;28;20689;-67
2021/03/25 10:15:30;;;;;;;5.38;4.88;;;;;;;;;;5084185;28;20042;-67
2021/03/25 10:17:56;;;;;;;5.88;5.20;;;;;;;;;;5087147;28;20032;-67
2021/03/25 10:20:41;;;;;;;4.25;3.85;;;;;;;;;;5085903;28;20032;-67
2021/03/25 10:23:14;;;;;;;7.65;4.60;;;;;;;;;;5085494;28;20031;-68
2021/03/25 10:25:40;;;;;;;5.03;4.63;;;;;;;;;;5082238;28;20039;-67
2021/03/25 10:28:10;;;;;;;6.05;4.93;;;;;;;;;;5087449;28;20151;-67
2021/03/25 10:30:36;;;;;;;6.38;4.05;;;;;;;;;;5090018;28;20163;-67
2021/03/25 10:33:07;;;;;;;7.30;5.85;;;;;;;;;;5084473;28;20093;-67
2021/03/25 10:35:35;;;;;;;7.43;5.00;;;;;;;;;;5084690;28;20040;-66
2021/03/25 10:38:06;;;;;;;4.35;3.95;;;;;;;;;;5087544;28;20043;-67
2021/03/25 10:40:40;;;;;;;5.10;4.60;;;;;;;;;;5083650;28;20029;-67
2021/03/25 10:43:15;;;;;;;7.18;4.32;;;;;;;;;;5081179;28;20035;-68
2021/03/25 10:45:51;;;;;;;5.55;5.05;;;;;;;;;;5082728;28;20119;-68
2021/03/25 10:48:28;;;;;;;6.28;4.50;;;;;;;;;;5091614;28;20086;-68
2021/03/25 10:50:59;;;;;;;6.90;6.20;;;;;;;;;;5090142;28;20040;-68
2021/03/25 10:53:31;;;;;;;6.88;5.95;;;;;;;;;;5085689;28;20036;-68
2021/03/25 10:56:02;;;;;;;6.38;5.68;;;;;;;;;;5083849;28;20142;-68
2021/03/25 10:58:31;;;;;;;9.30;5.70;;;;;;;;;;5083156;28;20494;-67
2021/03/25 11:01:01;;;;;;;5.38;4.75;;;;;;;;;;5087951;28;20506;-67
2021/03/25 11:03:32;;;;;;;7.05;5.45;;;;;;;;;;5096947;27;20043;-67
2021/03/25 11:05:59;;;;;;;5.65;5.00;;;;;;;;;;5088226;28;20367;-67
2021/03/25 11:08:31;;;;;;;6.18;5.60;;;;;;;;;;5095841;28;20042;-67
2021/03/25 11:10:59;;;;;;;6.38;4.60;;;;;;;;;;5096674;28;20058;-67
2021/03/25 11:13:25;;;;;;;7.07;4.95;;;;;;;;;;5094794;28;20031;-67
2021/03/25 11:16:03;;;;;;;5.05;4.47;;;;;;;;;;5076608;28;20039;-67
2021/03/25 11:18:33;;;;;;;7.13;6.07;;;;;;;;;;5096696;28;20115;-67
2021/03/25 11:20:59;;;;;;;4.45;3.58;;;;;;;;;;5095812;28;20034;-66
2021/03/25 11:23:27;;;;;;;6.47;4.38;;;;;;;;;;5097930;28;20398;-67
2021/03/25 11:26:01;;;;;;;4.68;4.18;;;;;;;;;;5092779;28;20024;-67
2021/03/25 11:28:29;;;;;;;7.68;5.40;;;;;;;;;;5094928;28;20031;-68
2021/03/25 11:31:15;;;;;;;5.25;4.63;;;;;;;;;;5094370;28;20047;-67
2021/03/25 11:33:42;;;;;;;6.38;4.72;;;;;;;;;;5086291;28;20046;-67
2021/03/25 11:36:08;;;;;;;4.88;4.43;;;;;;;;;;5086358;28;20687;-67
2021/03/25 11:38:41;;;;;;;5.63;4.88;;;;;;;;;;5096198;28;20042;-67
2021/03/25 11:41:09;;;;;;;6.40;5.55;;;;;;;;;;5075487;28;20390;-67
2021/03/25 11:43:54;;;;;;;7.10;5.90;;;;;;;;;;5095620;28;20043;-67
2021/03/25 11:46:24;;;;;;;5.95;5.45;;;;;;;;;;5090931;28;20043;-67
2021/03/25 11:49:09;;;;;;;9.57;5.47;;;;;;;;;;5094104;28;20039;-67
2021/03/25 11:51:39;;;;;;;5.90;5.30;;;;;;;;;;5094824;28;20040;-67
2021/03/25 11:54:38;;;;;;;5.93;5.43;;;;;;;;;;5095660;28;20067;-67
2021/03/25 11:57:22;;;;;;;7.45;5.55;;;;;;;;;;5034267;28;20039;-67
2021/03/25 11:59:49;;;;;;;5.10;4.50;;;;;;;;;;5109266;27;20097;-66
2021/03/25 12:02:20;;;;;;;7.00;6.22;;;;;;;;;;5102731;27;20046;-66
2021/03/25 12:04:46;;;;;;;4.93;4.45;;;;;;;;;;5111600;27;20046;-66
2021/03/25 12:07:12;;;;;;;6.18;5.57;;;;;;;;;;5110377;27;20035;-69
2021/03/25 12:09:57;;;;;;;5.50;4.75;;;;;;;;;;5118320;27;20027;-69
2021/03/25 12:12:23;;;;;;;6.78;4.82;;;;;;;;;;5127748;27;20043;-68
2021/03/25 12:14:49;;;;;;;5.78;5.20;;;;;;;;;;5127389;27;20027;-68
2021/03/25 12:17:15;;;;;;;5.40;4.82;;;;;;;;;;5112652;27;20410;-68
2021/03/25 12:19:41;;;;;;;6.03;5.43;;;;;;;;;;5120314;27;20067;-68
2021/03/25 12:22:11;;;;;;;5.10;4.53;;;;;;;;;;5127883;27;20481;-69
2021/03/25 12:24:37;;;;;;;6.60;5.90;;;;;;;;;;5106185;27;20110;-68
2021/03/25 12:27:03;;;;;;;6.18;5.65;;;;;;;;;;5111548;27;20022;-68
2021/03/25 12:29:30;;;;;;;6.55;5.63;;;;;;;;;;5122611;27;20037;-69
2021/03/25 12:31:56;;;;;;;7.07;5.90;;;;;;;;;;5131151;27;20196;-68
2021/03/25 12:34:23;;;;;;;6.43;4.28;;;;;;;;;;5118281;27;20070;-68
2021/03/25 12:36:49;;;;;;;7.47;5.53;;;;;;;;;;5103671;27;20047;-68
2021/03/25 12:39:17;;;;;;;5.30;4.80;;;;;;;;;;5118188;27;20027;-68
2021/03/25 12:41:44;;;;;;;6.13;5.53;;;;;;;;;;5114400;28;20031;-68
2021/03/25 12:44:15;;;;;;;6.85;4.90;;;;;;;;;;5118432;27;20034;-68
2021/03/25 12:46:42;;;;;;;8.52;6.05;;;;;;;;;;5104024;27;20035;-68
2021/03/25 12:49:08;;;;;;;8.05;7.25;;;;;;;;;;5130363;27;20057;-72
2021/03/25 12:51:35;;;;;;;5.80;5.28;;;;;;;;;;5120988;27;20124;-68
2021/03/25 12:54:02;;;;;;;6.40;5.35;;;;;;;;;;5126983;27;20018;-68
2021/03/25 12:56:34;;;;;;;7.65;6.95;;;;;;;;;;5128747;27;20027;-68
2021/03/25 12:59:10;;;;;;;7.03;6.03;;;;;;;;;;5101724;27;20135;-68
2021/03/25 13:01:36;;;;;;;5.28;4.75;;;;;;;;;;5097858;28;20024;-67
2021/03/25 13:04:02;;;;;;;6.47;4.93;;;;;;;;;;5094086;28;20016;-69
2021/03/25 13:06:28;;;;;;;6.28;4.68;;;;;;;;;;5097344;28;20023;-66
2021/03/25 13:08:55;;;;;;;5.72;5.15;;;;;;;;;;5105882;28;20490;-66
2021/03/25 13:11:23;;;;;;;7.47;5.40;;;;;;;;;;5103253;28;20039;-66
2021/03/25 13:13:49;;;;;;;8.13;5.78;;;;;;;;;;5101299;28;20176;-69
2021/03/25 13:16:15;;;;;;;5.70;5.20;;;;;;;;;;5099483;28;20032;-68
2021/03/25 13:18:42;;;;;;;4.70;4.30;;;;;;;;;;5104748;28;20032;-67
2021/03/25 13:21:08;;;;;;;5.68;5.05;;;;;;;;;;5095751;28;20040;-67
2021/03/25 13:23:35;;;;;;;4.82;4.43;;;;;;;;;;5099993;28;20077;-66
2021/03/25 13:26:02;;;;;;;5.25;4.70;;;;;;;;;;5100755;28;20401;-66
2021/03/25 13:28:28;;;;;;;6.13;5.15;;;;;;;;;;5102352;28;20027;-69
2021/03/25 13:30:55;;;;;;;4.60;4.20;;;;;;;;;;5109634;28;20484;-66
2021/03/25 13:33:21;;;;;;;6.38;4.78;;;;;;;;;;5093153;28;20097;-66
2021/03/25 13:35:48;;;;;;;6.00;4.55;;;;;;;;;;5107201;28;20118;-67
2021/03/25 13:38:14;;;;;;;7.53;4.20;;;;;;;;;;5105464;28;20032;-69
2021/03/25 13:40:41;;;;;;;4.75;4.30;;;;;;;;;;5106753;28;20114;-67
2021/03/25 13:43:08;;;;;;;3.95;3.55;;;;;;;;;;5106841;28;20020;-68
2021/03/25 13:45:34;;;;;;;8.07;5.80;;;;;;;;;;5109985;28;20038;-69
2021/03/25 13:48:01;;;;;;;5.43;4.95;;;;;;;;;;5109861;28;20026;-68
2021/03/25 13:50:29;;;;;;;5.20;4.68;;;;;;;;;;5108541;28;20089;-69
2021/03/25 13:52:55;;;;;;;8.63;5.07;;;;;;;;;;5107604;28;20043;-68
2021/03/25 13:55:29;;;;;;;6.50;5.13;;;;;;;;;;5109489;28;20035;-69
2021/03/25 13:57:55;;;;;;;5.97;5.45;;;;;;;;;;5109444;28;20039;-68
2021/03/25 14:00:23;;;;;;;6.40;5.10;;;;;;;;;;5119612;27;20457;-70
2021/03/25 14:02:49;;;;;;;6.40;5.20;;;;;;;;;;5121630;27;20040;-69
2021/03/25 14:05:16;;;;;;;10.45;7.65;;;;;;;;;;5128238;27;20034;-67
2021/03/25 14:07:42;;;;;;;6.47;5.68;;;;;;;;;;5130767;27;20091;-69
2021/03/25 14:10:09;;;;;;;8.70;6.38;;;;;;;;;;5121440;27;20504;-68
2021/03/25 14:12:35;;;;;;;7.53;6.10;;;;;;;;;;5129862;27;20031;-69
2021/03/25 14:15:02;;;;;;;6.75;4.85;;;;;;;;;;5128376;27;20028;-68
2021/03/25 14:17:28;;;;;;;8.32;7.53;;;;;;;;;;5129650;27;20023;-68
2021/03/25 14:19:54;;;;;;;7.50;5.53;;;;;;;;;;5130320;27;20130;-69
2021/03/25 14:22:20;;;;;;;6.63;6.00;;;;;;;;;;5123259;27;20034;-68
2021/03/25 14:24:46;;;;;;;5.53;5.03;;;;;;;;;;5118139;27;20521;-69
2021/03/25 14:27:12;;;;;;;7.38;6.00;;;;;;;;;;5115448;27;20031;-68
2021/03/25 14:29:38;;;;;;;7.22;6.45;;;;;;;;;;5116065;27;20024;-69
2021/03/25 14:32:04;;;;;;;7.82;5.78;;;;;;;;;;5125145;27;20043;-68
2021/03/25 14:34:30;;;;;;;7.90;6.25;;;;;;;;;;5128053;27;20441;-68
2021/03/25 14:36:57;;;;;;;6.88;5.90;;;;;;;;;;5121418;27;20042;-68
2021/03/25 14:39:23;;;;;;;8.43;6.40;;;;;;;;;;5115067;27;20111;-68
2021/03/25 14:41:49;;;;;;;6.80;6.10;;;;;;;;;;5123041;27;20023;-68
2021/03/25 14:44:15;;;;;;;8.75;7.85;;;;;;;;;;5122956;27;20030;-69
2021/03/25 14:46:41;;;;;;;7.45;6.75;;;;;;;;;;5122735;27;20496;-69
2021/03/25 14:49:07;;;;;;;9.80;7.53;;;;;;;;;;5110909;27;20514;-68
2021/03/25 14:51:40;;;;;;;10.80;8.20;;;;;;;;;;5124467;27;20164;-68
2021/03/25 14:54:06;;;;;;;12.80;8.88;;;;;;;;;;5107840;27;20074;-69
2021/03/25 14:56:32;;;;;;;8.55;7.68;;;;;;;;;;5105983;27;20073;-69
2021/03/25 14:58:58;;;;;;;9.25;6.47;;;;;;;;;;5101489;27;20749;-68
2021/03/25 15:01:24;;;;;;;11.48;8.40;;;;;;;;;;5084614;28;20040;-66
2021/03/25 15:03:50;;;;;;;9.52;6.55;;;;;;;;;;5083987;28;20114;-68